Chester, Iowa
Current Conditions -  °F | °C
As of 2:15 AM on Sunday 26 Oct 2014 (Local Time) from KFKA Reporting Station
Clear Clear  
Wind Chill: 39°   Ceiling: Unl
Heat Index: 42°   Visibility: 10mi
Dew Point: 27°   Wind: 5mph
Humidity: 57%   Direction: 360°N
Pressure: 30.04"   Gusts: NA
Location:  43.49°N, 92.36°W
Report Text: KFKA 260715Z AUTO 36004KT 10SM CLR 05/M03 A3004 RMK AO2 T00531027
Loading
Personal Weather Stations






























Interactive Weather Map
Tropical Storm Tracking
New forecast layout! Learn more

10-Day Weather Forecast

Advertisements
Track Severe Weather on mobile